sensor_id;sensor_type;location;lat;lon;timestamp;P1;durP1;ratioP1;P2;durP2;ratioP2
5209;SDS011;2624;48.048;11.706;2022-10-03T00:00:09;1.27;;;1.27;;
5209;SDS011;2624;48.048;11.706;2022-10-03T00:05:18;2.50;;;1.53;;
5209;SDS011;2624;48.048;11.706;2022-10-03T00:10:35;2.07;;;1.47;;
5209;SDS011;2624;48.048;11.706;2022-10-03T00:15:48;2.17;;;2.07;;
5209;SDS011;2624;48.048;11.706;2022-10-03T00:26:24;6.70;;;2.10;;
5209;SDS011;2624;48.048;11.706;2022-10-03T00:31:38;2.07;;;1.90;;
5209;SDS011;2624;48.048;11.706;2022-10-03T00:36:47;1.90;;;1.80;;
5209;SDS011;2624;48.048;11.706;2022-10-03T00:47:53;2.80;;;2.10;;
5209;SDS011;2624;48.048;11.706;2022-10-03T00:53:26;2.40;;;2.20;;
5209;SDS011;2624;48.048;11.706;2022-10-03T00:58:47;3.97;;;1.97;;
5209;SDS011;2624;48.048;11.706;2022-10-03T01:04:03;1.97;;;1.87;;
5209;SDS011;2624;48.048;11.706;2022-10-03T01:09:19;3.03;;;2.00;;
5209;SDS011;2624;48.048;11.706;2022-10-03T01:14:33;2.70;;;2.50;;
5209;SDS011;2624;48.048;11.706;2022-10-03T01:20:04;3.20;;;2.50;;
5209;SDS011;2624;48.048;11.706;2022-10-03T01:25:25;3.30;;;2.40;;
5209;SDS011;2624;48.048;11.706;2022-10-03T01:30:39;3.00;;;2.67;;
5209;SDS011;2624;48.048;11.706;2022-10-03T01:35:46;8.50;;;3.53;;
5209;SDS011;2624;48.048;11.706;2022-10-03T01:40:56;2.63;;;2.37;;
5209;SDS011;2624;48.048;11.706;2022-10-03T01:46:07;3.10;;;2.90;;
5209;SDS011;2624;48.048;11.706;2022-10-03T01:51:18;2.87;;;2.70;;
5209;SDS011;2624;48.048;11.706;2022-10-03T01:56:26;3.50;;;2.97;;
5209;SDS011;2624;48.048;11.706;2022-10-03T02:01:38;3.63;;;3.27;;
5209;SDS011;2624;48.048;11.706;2022-10-03T02:06:50;3.20;;;2.90;;
5209;SDS011;2624;48.048;11.706;2022-10-03T02:12:00;4.10;;;2.50;;
5209;SDS011;2624;48.048;11.706;2022-10-03T02:17:10;4.20;;;3.30;;
5209;SDS011;2624;48.048;11.706;2022-10-03T02:22:28;8.07;;;3.87;;
5209;SDS011;2624;48.048;11.706;2022-10-03T02:27:38;4.60;;;3.50;;
5209;SDS011;2624;48.048;11.706;2022-10-03T02:33:03;7.70;;;4.13;;
5209;SDS011;2624;48.048;11.706;2022-10-03T02:38:48;11.00;;;3.43;;
5209;SDS011;2624;48.048;11.706;2022-10-03T02:44:13;4.57;;;3.27;;
5209;SDS011;2624;48.048;11.706;2022-10-03T02:49:46;5.83;;;3.87;;
5209;SDS011;2624;48.048;11.706;2022-10-03T02:55:24;7.40;;;4.90;;
5209;SDS011;2624;48.048;11.706;2022-10-03T03:00:43;5.10;;;4.60;;
5209;SDS011;2624;48.048;11.706;2022-10-03T03:11:56;4.03;;;3.73;;
5209;SDS011;2624;48.048;11.706;2022-10-03T03:17:18;7.30;;;4.47;;
5209;SDS011;2624;48.048;11.706;2022-10-03T03:22:31;10.80;;;4.37;;
5209;SDS011;2624;48.048;11.706;2022-10-03T03:27:43;4.13;;;3.53;;
5209;SDS011;2624;48.048;11.706;2022-10-03T03:32:59;7.70;;;3.53;;
5209;SDS011;2624;48.048;11.706;2022-10-03T03:38:13;4.03;;;3.63;;
5209;SDS011;2624;48.048;11.706;2022-10-03T03:43:33;4.57;;;3.53;;
5209;SDS011;2624;48.048;11.706;2022-10-03T03:48:52;4.20;;;3.23;;
5209;SDS011;2624;48.048;11.706;2022-10-03T03:54:14;6.33;;;4.83;;
5209;SDS011;2624;48.048;11.706;2022-10-03T03:59:44;9.97;;;5.53;;
5209;SDS011;2624;48.048;11.706;2022-10-03T04:05:04;6.73;;;5.33;;
5209;SDS011;2624;48.048;11.706;2022-10-03T04:10:19;10.33;;;5.63;;
5209;SDS011;2624;48.048;11.706;2022-10-03T04:15:37;8.30;;;5.70;;
5209;SDS011;2624;48.048;11.706;2022-10-03T04:21:00;7.53;;;4.40;;
5209;SDS011;2624;48.048;11.706;2022-10-03T04:26:23;5.77;;;4.57;;
5209;SDS011;2624;48.048;11.706;2022-10-03T04:31:36;6.27;;;4.80;;
5209;SDS011;2624;48.048;11.706;2022-10-03T04:36:48;6.10;;;4.40;;
5209;SDS011;2624;48.048;11.706;2022-10-03T04:42:09;7.53;;;4.77;;
5209;SDS011;2624;48.048;11.706;2022-10-03T04:47:25;5.23;;;4.27;;
5209;SDS011;2624;48.048;11.706;2022-10-03T04:52:32;4.40;;;4.00;;
5209;SDS011;2624;48.048;11.706;2022-10-03T04:57:43;7.00;;;4.70;;
5209;SDS011;2624;48.048;11.706;2022-10-03T05:02:49;6.53;;;4.47;;
5209;SDS011;2624;48.048;11.706;2022-10-03T05:07:58;7.87;;;4.87;;
5209;SDS011;2624;48.048;11.706;2022-10-03T05:13:10;4.77;;;4.13;;
5209;SDS011;2624;48.048;11.706;2022-10-03T05:18:16;7.27;;;4.87;;
5209;SDS011;2624;48.048;11.706;2022-10-03T05:23:26;8.83;;;4.20;;
5209;SDS011;2624;48.048;11.706;2022-10-03T05:28:38;8.63;;;4.20;;
5209;SDS011;2624;48.048;11.706;2022-10-03T05:33:48;5.57;;;3.87;;
5209;SDS011;2624;48.048;11.706;2022-10-03T05:44:29;8.00;;;3.93;;
5209;SDS011;2624;48.048;11.706;2022-10-03T05:49:53;4.40;;;4.10;;
5209;SDS011;2624;48.048;11.706;2022-10-03T05:55:24;6.00;;;4.37;;
5209;SDS011;2624;48.048;11.706;2022-10-03T06:00:38;5.60;;;3.87;;
5209;SDS011;2624;48.048;11.706;2022-10-03T06:06:02;7.63;;;3.83;;
5209;SDS011;2624;48.048;11.706;2022-10-03T06:11:25;23.63;;;3.47;;
5209;SDS011;2624;48.048;11.706;2022-10-03T06:16:45;4.03;;;3.60;;
5209;SDS011;2624;48.048;11.706;2022-10-03T06:28:06;8.50;;;3.37;;
5209;SDS011;2624;48.048;11.706;2022-10-03T06:33:36;3.83;;;3.43;;
5209;SDS011;2624;48.048;11.706;2022-10-03T06:45:08;3.23;;;3.00;;
5209;SDS011;2624;48.048;11.706;2022-10-03T07:01:49;4.80;;;3.57;;
5209;SDS011;2624;48.048;11.706;2022-10-03T07:12:52;11.57;;;3.53;;
5209;SDS011;2624;48.048;11.706;2022-10-03T07:18:18;6.10;;;3.17;;
5209;SDS011;2624;48.048;11.706;2022-10-03T07:23:43;3.40;;;3.10;;
5209;SDS011;2624;48.048;11.706;2022-10-03T07:34:30;7.43;;;3.20;;
5209;SDS011;2624;48.048;11.706;2022-10-03T07:45:40;11.23;;;3.60;;
5209;SDS011;2624;48.048;11.706;2022-10-03T07:50:55;12.40;;;4.30;;
5209;SDS011;2624;48.048;11.706;2022-10-03T07:56:06;6.40;;;5.00;;
5209;SDS011;2624;48.048;11.706;2022-10-03T08:01:32;4.33;;;3.77;;
5209;SDS011;2624;48.048;11.706;2022-10-03T08:06:46;6.73;;;4.40;;
5209;SDS011;2624;48.048;11.706;2022-10-03T08:29:17;9.13;;;4.30;;
5209;SDS011;2624;48.048;11.706;2022-10-03T08:34:42;5.27;;;3.60;;
5209;SDS011;2624;48.048;11.706;2022-10-03T08:40:15;3.50;;;2.67;;
5209;SDS011;2624;48.048;11.706;2022-10-03T08:45:43;8.00;;;3.40;;
5209;SDS011;2624;48.048;11.706;2022-10-03T08:50:59;10.50;;;4.17;;
5209;SDS011;2624;48.048;11.706;2022-10-03T08:56:12;15.33;;;4.30;;
5209;SDS011;2624;48.048;11.706;2022-10-03T09:01:19;10.23;;;5.07;;
5209;SDS011;2624;48.048;11.706;2022-10-03T09:06:48;6.27;;;4.07;;
5209;SDS011;2624;48.048;11.706;2022-10-03T09:12:08;5.90;;;5.10;;
5209;SDS011;2624;48.048;11.706;2022-10-03T09:17:48;1.63;;;1.53;;
5209;SDS011;2624;48.048;11.706;2022-10-03T09:28:43;3.30;;;3.00;;
5209;SDS011;2624;48.048;11.706;2022-10-03T09:34:26;9.10;;;4.00;;
5209;SDS011;2624;48.048;11.706;2022-10-03T09:51:29;4.70;;;3.87;;
5209;SDS011;2624;48.048;11.706;2022-10-03T09:56:48;4.07;;;2.97;;
5209;SDS011;2624;48.048;11.706;2022-10-03T10:02:34;4.70;;;3.80;;
5209;SDS011;2624;48.048;11.706;2022-10-03T10:08:09;4.57;;;3.50;;
5209;SDS011;2624;48.048;11.706;2022-10-03T10:13:41;8.60;;;3.63;;
5209;SDS011;2624;48.048;11.706;2022-10-03T10:24:50;6.23;;;4.20;;
5209;SDS011;2624;48.048;11.706;2022-10-03T10:30:18;7.80;;;3.50;;
5209;SDS011;2624;48.048;11.706;2022-10-03T10:41:13;3.50;;;3.23;;
5209;SDS011;2624;48.048;11.706;2022-10-03T10:52:28;3.50;;;3.13;;
5209;SDS011;2624;48.048;11.706;2022-10-03T10:58:22;3.67;;;3.37;;
5209;SDS011;2624;48.048;11.706;2022-10-03T11:04:17;2.33;;;2.23;;
5209;SDS011;2624;48.048;11.706;2022-10-03T11:09:51;2.87;;;1.97;;
5209;SDS011;2624;48.048;11.706;2022-10-03T11:32:30;15.47;;;3.77;;
5209;SDS011;2624;48.048;11.706;2022-10-03T11:38:03;3.63;;;2.77;;
5209;SDS011;2624;48.048;11.706;2022-10-03T11:43:24;2.47;;;2.33;;
5209;SDS011;2624;48.048;11.706;2022-10-03T11:48:57;4.70;;;3.37;;
5209;SDS011;2624;48.048;11.706;2022-10-03T11:54:08;9.20;;;3.90;;
5209;SDS011;2624;48.048;11.706;2022-10-03T11:59:28;2.63;;;2.47;;
5209;SDS011;2624;48.048;11.706;2022-10-03T12:04:38;3.80;;;3.33;;
5209;SDS011;2624;48.048;11.706;2022-10-03T12:10:00;4.03;;;3.27;;
5209;SDS011;2624;48.048;11.706;2022-10-03T12:15:18;7.63;;;3.90;;
5209;SDS011;2624;48.048;11.706;2022-10-03T12:20:29;2.60;;;2.40;;
5209;SDS011;2624;48.048;11.706;2022-10-03T12:25:43;7.30;;;3.30;;
5209;SDS011;2624;48.048;11.706;2022-10-03T12:30:49;3.27;;;2.97;;
5209;SDS011;2624;48.048;11.706;2022-10-03T12:35:56;4.67;;;2.77;;
5209;SDS011;2624;48.048;11.706;2022-10-03T12:41:09;3.60;;;3.37;;
5209;SDS011;2624;48.048;11.706;2022-10-03T12:46:23;1.93;;;1.87;;
5209;SDS011;2624;48.048;11.706;2022-10-03T12:51:34;5.83;;;2.63;;
5209;SDS011;2624;48.048;11.706;2022-10-03T12:56:51;5.40;;;2.40;;
5209;SDS011;2624;48.048;11.706;2022-10-03T13:02:21;5.80;;;2.67;;
5209;SDS011;2624;48.048;11.706;2022-10-03T13:07:31;2.17;;;2.00;;
5209;SDS011;2624;48.048;11.706;2022-10-03T13:12:42;3.93;;;1.97;;
5209;SDS011;2624;48.048;11.706;2022-10-03T13:17:52;4.40;;;2.10;;
5209;SDS011;2624;48.048;11.706;2022-10-03T13:22:59;6.47;;;2.30;;
5209;SDS011;2624;48.048;11.706;2022-10-03T13:28:10;2.60;;;2.10;;
5209;SDS011;2624;48.048;11.706;2022-10-03T13:33:16;2.33;;;2.13;;
5209;SDS011;2624;48.048;11.706;2022-10-03T13:38:24;2.80;;;2.43;;
5209;SDS011;2624;48.048;11.706;2022-10-03T13:43:43;3.13;;;2.30;;
5209;SDS011;2624;48.048;11.706;2022-10-03T13:48:52;3.77;;;3.23;;
5209;SDS011;2624;48.048;11.706;2022-10-03T13:53:59;10.57;;;2.67;;
5209;SDS011;2624;48.048;11.706;2022-10-03T13:59:11;4.20;;;2.40;;
5209;SDS011;2624;48.048;11.706;2022-10-03T14:04:43;2.00;;;1.90;;
5209;SDS011;2624;48.048;11.706;2022-10-03T14:09:59;5.43;;;2.67;;
5209;SDS011;2624;48.048;11.706;2022-10-03T14:15:20;2.57;;;2.37;;
5209;SDS011;2624;48.048;11.706;2022-10-03T14:20:34;3.20;;;2.40;;
5209;SDS011;2624;48.048;11.706;2022-10-03T14:26:00;4.13;;;2.67;;
5209;SDS011;2624;48.048;11.706;2022-10-03T14:31:09;1.87;;;1.77;;
5209;SDS011;2624;48.048;11.706;2022-10-03T14:36:23;2.47;;;2.30;;
5209;SDS011;2624;48.048;11.706;2022-10-03T14:41:45;6.07;;;2.47;;
5209;SDS011;2624;48.048;11.706;2022-10-03T14:47:06;2.30;;;2.20;;
5209;SDS011;2624;48.048;11.706;2022-10-03T14:52:12;5.50;;;2.30;;
5209;SDS011;2624;48.048;11.706;2022-10-03T14:57:27;1.60;;;1.37;;
5209;SDS011;2624;48.048;11.706;2022-10-03T15:02:34;11.17;;;3.07;;
5209;SDS011;2624;48.048;11.706;2022-10-03T15:07:37;2.93;;;2.33;;
5209;SDS011;2624;48.048;11.706;2022-10-03T15:12:43;2.10;;;1.67;;
5209;SDS011;2624;48.048;11.706;2022-10-03T15:17:51;2.20;;;1.93;;
5209;SDS011;2624;48.048;11.706;2022-10-03T15:22:55;3.47;;;1.50;;
5209;SDS011;2624;48.048;11.706;2022-10-03T15:28:01;2.03;;;1.93;;
5209;SDS011;2624;48.048;11.706;2022-10-03T15:33:20;1.90;;;1.43;;
5209;SDS011;2624;48.048;11.706;2022-10-03T15:38:31;3.70;;;1.70;;
5209;SDS011;2624;48.048;11.706;2022-10-03T15:43:40;1.90;;;1.80;;
5209;SDS011;2624;48.048;11.706;2022-10-03T15:48:48;4.30;;;1.90;;
5209;SDS011;2624;48.048;11.706;2022-10-03T15:53:54;2.17;;;1.73;;
5209;SDS011;2624;48.048;11.706;2022-10-03T15:59:00;9.13;;;2.13;;
5209;SDS011;2624;48.048;11.706;2022-10-03T16:04:11;2.23;;;1.97;;
5209;SDS011;2624;48.048;11.706;2022-10-03T16:09:22;3.67;;;1.70;;
5209;SDS011;2624;48.048;11.706;2022-10-03T16:14:28;1.83;;;1.73;;
5209;SDS011;2624;48.048;11.706;2022-10-03T16:19:37;2.90;;;2.17;;
5209;SDS011;2624;48.048;11.706;2022-10-03T16:24:42;4.77;;;1.90;;
5209;SDS011;2624;48.048;11.706;2022-10-03T16:30:13;1.90;;;1.80;;
5209;SDS011;2624;48.048;11.706;2022-10-03T16:35:25;7.00;;;1.60;;
5209;SDS011;2624;48.048;11.706;2022-10-03T16:40:32;2.93;;;1.53;;
5209;SDS011;2624;48.048;11.706;2022-10-03T16:45:38;3.80;;;1.87;;
5209;SDS011;2624;48.048;11.706;2022-10-03T16:50:46;1.87;;;1.77;;
5209;SDS011;2624;48.048;11.706;2022-10-03T16:55:52;5.70;;;1.70;;
5209;SDS011;2624;48.048;11.706;2022-10-03T17:00:59;3.83;;;2.50;;
5209;SDS011;2624;48.048;11.706;2022-10-03T17:06:05;3.77;;;2.37;;
5209;SDS011;2624;48.048;11.706;2022-10-03T17:11:11;4.70;;;2.80;;
5209;SDS011;2624;48.048;11.706;2022-10-03T17:16:22;6.27;;;2.50;;
5209;SDS011;2624;48.048;11.706;2022-10-03T17:21:33;4.87;;;2.77;;
5209;SDS011;2624;48.048;11.706;2022-10-03T17:26:40;4.50;;;2.80;;
5209;SDS011;2624;48.048;11.706;2022-10-03T17:31:45;8.63;;;2.03;;
5209;SDS011;2624;48.048;11.706;2022-10-03T17:37:00;2.63;;;2.10;;
5209;SDS011;2624;48.048;11.706;2022-10-03T17:42:27;18.93;;;6.50;;
5209;SDS011;2624;48.048;11.706;2022-10-03T17:47:36;11.23;;;4.97;;
5209;SDS011;2624;48.048;11.706;2022-10-03T17:52:50;10.73;;;4.37;;
5209;SDS011;2624;48.048;11.706;2022-10-03T17:57:54;14.80;;;3.07;;
5209;SDS011;2624;48.048;11.706;2022-10-03T18:03:00;6.77;;;2.97;;
5209;SDS011;2624;48.048;11.706;2022-10-03T18:08:11;9.57;;;4.63;;
5209;SDS011;2624;48.048;11.706;2022-10-03T18:13:20;9.23;;;4.37;;
5209;SDS011;2624;48.048;11.706;2022-10-03T18:18:39;4.00;;;3.47;;
5209;SDS011;2624;48.048;11.706;2022-10-03T18:24:00;12.93;;;5.20;;
5209;SDS011;2624;48.048;11.706;2022-10-03T18:29:15;16.23;;;8.87;;
5209;SDS011;2624;48.048;11.706;2022-10-03T18:34:25;34.77;;;10.93;;
5209;SDS011;2624;48.048;11.706;2022-10-03T18:39:35;24.90;;;10.50;;
5209;SDS011;2624;48.048;11.706;2022-10-03T18:44:38;19.93;;;10.50;;
5209;SDS011;2624;48.048;11.706;2022-10-03T18:49:46;18.57;;;9.40;;
5209;SDS011;2624;48.048;11.706;2022-10-03T18:54:58;62.00;;;20.00;;
5209;SDS011;2624;48.048;11.706;2022-10-03T19:00:04;54.93;;;21.73;;
5209;SDS011;2624;48.048;11.706;2022-10-03T19:05:10;20.47;;;8.50;;
5209;SDS011;2624;48.048;11.706;2022-10-03T19:10:27;22.87;;;9.10;;
5209;SDS011;2624;48.048;11.706;2022-10-03T19:15:39;6.20;;;4.20;;
5209;SDS011;2624;48.048;11.706;2022-10-03T19:20:49;7.63;;;4.40;;
5209;SDS011;2624;48.048;11.706;2022-10-03T19:25:56;5.57;;;4.47;;
5209;SDS011;2624;48.048;11.706;2022-10-03T19:31:03;4.50;;;4.10;;
5209;SDS011;2624;48.048;11.706;2022-10-03T19:36:08;6.33;;;4.00;;
5209;SDS011;2624;48.048;11.706;2022-10-03T19:41:21;4.93;;;4.27;;
5209;SDS011;2624;48.048;11.706;2022-10-03T19:46:33;8.10;;;4.33;;
5209;SDS011;2624;48.048;11.706;2022-10-03T19:52:13;32.00;;;11.87;;
5209;SDS011;2624;48.048;11.706;2022-10-03T19:57:19;16.50;;;6.30;;
5209;SDS011;2624;48.048;11.706;2022-10-03T20:02:25;15.77;;;6.70;;
5209;SDS011;2624;48.048;11.706;2022-10-03T20:07:42;12.23;;;6.07;;
5209;SDS011;2624;48.048;11.706;2022-10-03T20:12:48;14.20;;;5.00;;
5209;SDS011;2624;48.048;11.706;2022-10-03T20:17:52;5.03;;;4.53;;
5209;SDS011;2624;48.048;11.706;2022-10-03T20:23:01;4.50;;;3.37;;
5209;SDS011;2624;48.048;11.706;2022-10-03T20:28:07;2.63;;;2.53;;
5209;SDS011;2624;48.048;11.706;2022-10-03T20:33:18;2.73;;;2.40;;
5209;SDS011;2624;48.048;11.706;2022-10-03T20:38:25;4.40;;;4.00;;
5209;SDS011;2624;48.048;11.706;2022-10-03T20:43:38;6.63;;;3.53;;
5209;SDS011;2624;48.048;11.706;2022-10-03T20:48:46;4.00;;;3.47;;
5209;SDS011;2624;48.048;11.706;2022-10-03T20:54:08;3.73;;;2.43;;
5209;SDS011;2624;48.048;11.706;2022-10-03T20:59:19;2.47;;;2.27;;
5209;SDS011;2624;48.048;11.706;2022-10-03T21:04:28;3.63;;;2.80;;
5209;SDS011;2624;48.048;11.706;2022-10-03T21:09:34;5.97;;;2.50;;
5209;SDS011;2624;48.048;11.706;2022-10-03T21:14:44;2.20;;;2.10;;
5209;SDS011;2624;48.048;11.706;2022-10-03T21:19:49;3.37;;;2.10;;
5209;SDS011;2624;48.048;11.706;2022-10-03T21:24:54;3.47;;;2.20;;
5209;SDS011;2624;48.048;11.706;2022-10-03T21:30:03;2.20;;;2.10;;
5209;SDS011;2624;48.048;11.706;2022-10-03T21:35:18;2.97;;;2.73;;
5209;SDS011;2624;48.048;11.706;2022-10-03T21:40:32;2.33;;;2.23;;
5209;SDS011;2624;48.048;11.706;2022-10-03T21:45:48;4.77;;;2.63;;
5209;SDS011;2624;48.048;11.706;2022-10-03T21:50:55;2.37;;;2.17;;
5209;SDS011;2624;48.048;11.706;2022-10-03T22:01:42;2.17;;;2.07;;
5209;SDS011;2624;48.048;11.706;2022-10-03T22:06:50;2.63;;;2.43;;
5209;SDS011;2624;48.048;11.706;2022-10-03T22:11:58;1.70;;;1.60;;
5209;SDS011;2624;48.048;11.706;2022-10-03T22:17:05;1.70;;;1.50;;
5209;SDS011;2624;48.048;11.706;2022-10-03T22:22:18;2.30;;;2.00;;
5209;SDS011;2624;48.048;11.706;2022-10-03T22:27:34;3.10;;;2.50;;
5209;SDS011;2624;48.048;11.706;2022-10-03T22:32:48;1.93;;;1.83;;
5209;SDS011;2624;48.048;11.706;2022-10-03T22:37:59;16.40;;;3.10;;
5209;SDS011;2624;48.048;11.706;2022-10-03T22:43:02;2.57;;;2.37;;
5209;SDS011;2624;48.048;11.706;2022-10-03T22:48:08;4.50;;;2.30;;
5209;SDS011;2624;48.048;11.706;2022-10-03T22:53:14;2.27;;;2.07;;
5209;SDS011;2624;48.048;11.706;2022-10-03T22:58:21;1.93;;;1.83;;
5209;SDS011;2624;48.048;11.706;2022-10-03T23:03:25;2.00;;;1.90;;
5209;SDS011;2624;48.048;11.706;2022-10-03T23:08:35;2.50;;;2.30;;
5209;SDS011;2624;48.048;11.706;2022-10-03T23:13:46;7.57;;;1.90;;
5209;SDS011;2624;48.048;11.706;2022-10-03T23:18:53;2.07;;;1.87;;
5209;SDS011;2624;48.048;11.706;2022-10-03T23:24:05;2.10;;;1.90;;
5209;SDS011;2624;48.048;11.706;2022-10-03T23:29:13;1.90;;;1.80;;
5209;SDS011;2624;48.048;11.706;2022-10-03T23:45:22;5.47;;;1.53;;
5209;SDS011;2624;48.048;11.706;2022-10-03T23:50:33;1.63;;;1.53;;
5209;SDS011;2624;48.048;11.706;2022-10-03T23:55:39;2.30;;;2.10;;
